Gongogi, Brazil
Current Conditions -  °F | °C
As of 11:00 PM on Tuesday 21 Oct 2014 (Local Time) from SBIL Reporting Station
Scattered Clouds Scattered Clouds  
Wind Chill: 75°   Ceiling: Unl
Heat Index: 75°   Visibility: 6mi
Dew Point: 68°   Wind: 7mph
Humidity: 78%   Direction: 80°E
Pressure: 30"   Gusts: NA
Location:  14.32°S, 39.46°W
Report Text: SBIL 220200Z 08006KT 9999 SCT025 24/20 Q1016
Loading
Personal Weather Stations






























Interactive Weather Map
Tropical Storm Tracking
New forecast layout! Learn more

10-Day Weather Forecast

Advertisements
Track Severe Weather on mobile